Time;durP1;ratioP1;P1;durP2;ratioP2;P2;SDS_P1;SDS_P2;PMS_P1;PMS_P2;Temp;Humidity;BMP_temperature;BMP_pressure;BME280_temperature;BME280_humidity;BME280_pressure;Samples;Min_cycle;Max_cycle;Signal;HPM_P1;HPM_P2
2022/06/14 00:00:53;;;;;;;17.33;6.75;;;;;;;9.32;90.96;102212.19;171201;28;990;-70
2022/06/14 00:00:54;;;;;;;15.93;6.56;;;;;;;9.32;91.28;102219.13;172003;28;1199;-70
2022/06/14 00:00:59;;;;;;;15.90;6.38;;;;;;;9.31;91.00;102205.22;171976;28;1042;-70
2022/06/14 00:01:05;;;;;;;15.80;6.53;;;;;;;9.31;91.18;102214.81;171985;28;915;-70
2022/06/14 00:01:10;;;;;;;17.13;6.63;;;;;;;9.31;91.05;102217.41;171980;28;1042;-70
2022/06/14 00:01:16;;;;;;;16.37;6.60;;;;;;;9.30;91.34;102208.72;171998;28;871;-70
2022/06/14 00:01:21;;;;;;;15.75;6.60;;;;;;;9.31;91.28;102212.22;172006;28;817;-70
2022/06/14 00:01:27;;;;;;;14.97;6.57;;;;;;;9.31;91.14;102209.59;171937;28;903;-70
2022/06/14 00:01:34;;;;;;;14.95;6.65;;;;;;;9.32;91.17;102219.13;171937;28;915;-70
2022/06/14 00:01:39;;;;;;;14.27;6.63;;;;;;;9.31;91.21;102209.59;172054;28;950;-70
2022/06/14 00:01:45;;;;;;;13.93;6.67;;;;;;;9.30;91.16;102208.72;172015;28;982;-70
2022/06/14 00:01:50;;;;;;;14.40;6.75;;;;;;;9.30;91.18;102207.91;172032;28;851;-70
2022/06/14 00:01:56;;;;;;;14.53;6.50;;;;;;;9.30;91.21;102207.91;172017;28;843;-70
2022/06/14 00:02:01;;;;;;;14.30;6.35;;;;;;;9.30;91.24;102208.72;172018;28;1097;-70
2022/06/14 00:02:06;;;;;;;14.23;6.20;;;;;;;9.29;91.05;102212.22;172001;28;923;-70
2022/06/14 00:02:12;;;;;;;15.68;6.30;;;;;;;9.31;91.20;102209.59;172017;28;1030;-70
2022/06/14 00:02:17;;;;;;;16.13;6.30;;;;;;;9.30;91.21;102211.34;172049;28;946;-70
2022/06/14 00:02:22;;;;;;;15.70;6.40;;;;;;;9.31;91.18;102212.22;172051;28;907;-70
2022/06/14 00:02:28;;;;;;;15.38;6.50;;;;;;;9.30;91.32;102213.94;171900;28;825;-70
2022/06/14 00:02:33;;;;;;;15.50;6.53;;;;;;;9.31;91.04;102213.06;171935;28;864;-70
2022/06/14 00:02:38;;;;;;;14.40;6.50;;;;;;;9.31;90.86;102209.59;171981;28;836;-70
2022/06/14 00:02:44;;;;;;;14.05;6.43;;;;;;;9.31;91.50;102207.00;171962;28;832;-70
2022/06/14 00:02:49;;;;;;;13.43;6.30;;;;;;;9.32;91.29;102213.91;172000;28;856;-70
2022/06/14 00:02:55;;;;;;;13.97;6.23;;;;;;;9.31;90.70;102213.06;171982;28;856;-70
2022/06/14 00:03:00;;;;;;;15.25;6.22;;;;;;;9.31;91.33;102212.22;171965;28;1030;-70
2022/06/14 00:03:06;;;;;;;16.63;6.20;;;;;;;9.31;91.31;102215.66;171284;28;848;-70
2022/06/14 00:03:12;;;;;;;15.68;6.18;;;;;;;9.31;91.45;102217.41;171327;28;1148;-70
2022/06/14 00:03:17;;;;;;;15.40;6.20;;;;;;;9.32;91.26;102211.31;171348;28;844;-70
2022/06/14 00:03:30;;;;;;;15.70;6.20;;;;;;;9.31;91.30;102210.44;171296;28;918;-70
2022/06/14 00:03:39;;;;;;;13.84;6.19;;;;;;;9.31;91.45;102213.06;171226;28;1250;-70
2022/06/14 00:03:46;;;;;;;14.40;6.26;;;;;;;9.31;91.40;102218.25;171263;28;1163;-70
2022/06/14 00:03:51;;;;;;;16.58;6.55;;;;;;;9.31;91.44;102209.59;171337;28;891;-70
2022/06/14 00:03:57;;;;;;;17.53;6.63;;;;;;;9.31;91.58;102209.59;171303;28;1030;-70
2022/06/14 00:04:03;;;;;;;18.36;6.82;;;;;;;9.31;91.29;102215.66;171291;28;967;-70
2022/06/14 00:04:08;;;;;;;18.23;6.70;;;;;;;9.30;91.41;102215.72;171182;28;975;-70
2022/06/14 00:04:14;;;;;;;16.80;6.63;;;;;;;9.31;91.38;102210.44;171302;28;877;-70
2022/06/14 00:04:19;;;;;;;15.53;6.50;;;;;;;9.31;91.57;102210.44;171341;28;951;-70
2022/06/14 00:04:25;;;;;;;14.63;6.38;;;;;;;9.30;91.60;102213.09;171429;28;840;-70
2022/06/14 00:04:32;;;;;;;13.97;6.30;;;;;;;9.31;91.42;102215.66;171257;28;849;-70
2022/06/14 00:04:37;;;;;;;14.24;6.32;;;;;;;9.31;91.42;102209.59;171354;28;896;-69
2022/06/14 00:04:42;;;;;;;14.87;6.63;;;;;;;9.31;91.58;102212.22;171212;28;848;-70
2022/06/14 00:04:48;;;;;;;16.05;6.90;;;;;;;9.30;91.67;102218.31;171357;28;1030;-70
2022/06/14 00:04:53;;;;;;;16.13;6.80;;;;;;;9.30;91.47;102213.09;170559;28;848;-70
2022/06/14 00:04:58;;;;;;;16.67;6.97;;;;;;;9.30;91.68;102213.09;170609;29;899;-70
2022/06/14 00:05:05;;;;;;;17.10;7.00;;;;;;;9.30;91.47;102211.34;170869;28;1047;-70
2022/06/14 00:05:10;;;;;;;16.58;6.88;;;;;;;9.30;91.82;102208.72;171280;28;1006;-70
2022/06/14 00:05:16;;;;;;;16.42;6.60;;;;;;;9.30;91.60;102219.16;171284;28;1022;-69
2022/06/14 00:05:21;;;;;;;18.00;6.60;;;;;;;9.30;91.67;102210.50;171349;28;1089;-69
2022/06/14 00:05:26;;;;;;;17.83;6.60;;;;;;;9.28;91.83;102211.34;171314;28;908;-69
2022/06/14 00:05:32;;;;;;;18.05;6.40;;;;;;;9.28;91.55;102221.78;171296;28;915;-69
2022/06/14 00:05:38;;;;;;;19.80;6.40;;;;;;;9.28;91.89;102211.34;171282;28;1269;-70
2022/06/14 00:05:44;;;;;;;19.63;6.37;;;;;;;9.28;92.06;102211.34;171294;28;880;-69
2022/06/14 00:05:50;;;;;;;18.58;6.40;;;;;;;9.28;91.92;102211.34;171340;28;915;-69
2022/06/14 00:06:04;;;;;;;17.97;6.50;;;;;;;9.28;91.68;102211.34;171289;28;860;-70
2022/06/14 00:06:17;;;;;;;17.27;6.74;;;;;;;9.28;91.75;102215.72;171194;28;1245;-70
2022/06/14 00:06:26;;;;;;;16.16;6.70;;;;;;;9.27;91.97;102211.38;171295;28;1272;-70
2022/06/14 00:06:34;;;;;;;16.02;6.46;;;;;;;9.26;91.59;102212.28;171207;28;1489;-70
2022/06/14 00:06:39;;;;;;;16.47;6.38;;;;;;;9.25;91.83;102206.22;171283;28;983;-70
2022/06/14 00:06:45;;;;;;;17.30;6.37;;;;;;;9.25;91.96;102215.78;171294;28;1027;-70
2022/06/14 00:06:51;;;;;;;17.67;6.32;;;;;;;9.24;92.21;102209.69;171626;28;896;-69
2022/06/14 00:06:56;;;;;;;17.92;6.45;;;;;;;9.23;91.99;102207.97;172004;28;899;-69
2022/06/14 00:07:02;;;;;;;17.80;6.53;;;;;;;9.23;92.00;102210.56;171972;28;924;-70
2022/06/14 00:07:08;;;;;;;17.08;6.47;;;;;;;9.23;92.03;102215.78;171989;28;1018;-69
2022/06/14 00:07:13;;;;;;;16.45;6.32;;;;;;;9.23;92.07;102210.56;172007;28;938;-69
2022/06/14 00:07:19;;;;;;;15.67;6.20;;;;;;;9.22;91.90;102214.06;172030;28;1014;-69
2022/06/14 00:07:24;;;;;;;15.60;6.30;;;;;;;9.22;92.00;102211.47;171906;28;1975;-69
2022/06/14 00:07:30;;;;;;;16.50;6.30;;;;;;;9.21;91.96;102209.72;171974;28;864;-70
2022/06/14 00:07:35;;;;;;;17.52;6.30;;;;;;;9.22;92.14;102211.47;171941;28;1022;-70
2022/06/14 00:07:40;;;;;;;18.27;6.47;;;;;;;9.21;91.92;102206.28;171931;28;1054;-69
2022/06/14 00:07:46;;;;;;;18.60;6.63;;;;;;;9.21;92.24;102208.88;171932;28;1034;-69
2022/06/14 00:07:51;;;;;;;18.13;6.75;;;;;;;9.21;92.33;102212.31;171974;28;833;-69
2022/06/14 00:07:57;;;;;;;17.23;6.47;;;;;;;9.20;92.42;102210.63;171974;28;915;-70
2022/06/14 00:08:03;;;;;;;16.63;6.60;;;;;;;9.22;92.13;102200.19;171898;28;1432;-69
2022/06/14 00:08:11;;;;;;;15.63;6.60;;;;;;;9.22;92.26;102208.88;171992;28;938;-69
2022/06/14 00:08:19;;;;;;;15.40;6.67;;;;;;;9.23;92.19;102204.50;171880;28;986;-69
2022/06/14 00:08:26;;;;;;;15.94;6.84;;;;;;;9.22;92.30;102211.47;171969;28;958;-69
2022/06/14 00:08:32;;;;;;;14.97;6.73;;;;;;;9.23;92.37;102210.56;172539;28;1672;-70
2022/06/14 00:08:38;;;;;;;16.30;6.60;;;;;;;9.22;91.87;102211.47;172634;28;828;-70
2022/06/14 00:08:44;;;;;;;16.65;6.63;;;;;;;9.23;92.16;102207.97;172658;28;953;-70
2022/06/14 00:08:51;;;;;;;15.93;6.47;;;;;;;9.24;92.32;102209.69;172695;28;967;-69
2022/06/14 00:08:58;;;;;;;15.97;6.40;;;;;;;9.24;92.07;102209.69;172673;28;899;-69
2022/06/14 00:09:03;;;;;;;15.82;6.43;;;;;;;9.24;92.19;102208.84;172648;28;938;-69
2022/06/14 00:09:09;;;;;;;14.68;6.50;;;;;;;9.25;92.28;102210.56;172658;28;950;-70
2022/06/14 00:09:15;;;;;;;15.27;6.32;;;;;;;9.24;92.09;102207.09;172654;28;986;-70
2022/06/14 00:09:20;;;;;;;14.98;6.20;;;;;;;9.24;91.81;102212.28;172690;28;867;-70
2022/06/14 00:09:26;;;;;;;15.63;6.40;;;;;;;9.23;92.25;102207.97;172666;28;804;-70
2022/06/14 00:09:31;;;;;;;15.27;6.47;;;;;;;9.23;91.95;102205.38;172623;28;847;-70
2022/06/14 00:09:36;;;;;;;15.52;6.55;;;;;;;9.23;92.13;102207.09;172607;28;1231;-69
2022/06/14 00:09:42;;;;;;;15.07;6.60;;;;;;;9.23;92.31;102205.38;172631;28;820;-69
2022/06/14 00:09:47;;;;;;;15.00;6.85;;;;;;;9.23;91.71;102210.56;172636;28;918;-70
2022/06/14 00:09:52;;;;;;;15.93;6.90;;;;;;;9.23;92.23;102213.19;172618;28;906;-70
2022/06/14 00:09:58;;;;;;;15.80;6.90;;;;;;;9.24;92.02;102211.44;172653;28;835;-69
2022/06/14 00:10:03;;;;;;;18.17;7.03;;;;;;;9.23;92.39;102202.75;172035;28;1041;-70
2022/06/14 00:10:09;;;;;;;18.00;6.93;;;;;;;9.22;92.15;102208.88;172020;28;1027;-69
2022/06/14 00:10:14;;;;;;;19.73;7.03;;;;;;;9.21;92.23;102209.72;172014;28;872;-69
2022/06/14 00:10:20;;;;;;;20.00;6.80;;;;;;;9.22;92.43;102206.25;172004;28;1034;-69
2022/06/14 00:10:25;;;;;;;20.25;6.70;;;;;;;9.22;92.17;102205.38;171916;28;1153;-69
2022/06/14 00:10:31;;;;;;;19.83;6.75;;;;;;;9.21;92.01;102208.88;171994;28;856;-70
2022/06/14 00:10:37;;;;;;;18.20;6.63;;;;;;;9.21;92.32;102203.69;171869;28;1041;-70
2022/06/14 00:10:43;;;;;;;16.73;6.55;;;;;;;9.20;92.19;102200.19;171971;28;943;-69
2022/06/14 00:10:49;;;;;;;16.00;6.55;;;;;;;9.20;92.01;102208.00;171982;28;971;-69
2022/06/14 00:10:59;;;;;;;15.32;6.60;;;;;;;9.20;92.66;102208.00;171943;28;928;-70
2022/06/14 00:11:15;;;;;;;17.73;6.50;;;;;;;9.21;92.40;102204.50;172003;28;876;-70
2022/06/14 00:11:30;;;;;;;18.52;6.50;;;;;;;9.22;92.31;102206.25;171980;28;1246;-70
2022/06/14 00:11:41;;;;;;;17.34;6.20;;;;;;;9.22;92.11;102201.06;171953;28;1250;-69
2022/06/14 00:11:46;;;;;;;16.20;6.07;;;;;;;9.23;92.19;102205.38;171969;28;1284;-70
2022/06/14 00:11:52;;;;;;;16.53;6.33;;;;;;;9.22;92.08;102201.06;172020;28;880;-69
2022/06/14 00:12:00;;;;;;;16.27;6.60;;;;;;;9.23;92.28;102201.88;171826;28;911;-70
2022/06/14 00:12:06;;;;;;;15.28;6.58;;;;;;;9.22;92.00;102206.25;171967;28;978;-69
2022/06/14 00:12:13;;;;;;;14.93;6.63;;;;;;;9.21;92.01;102204.50;171966;28;1086;-69
2022/06/14 00:12:18;;;;;;;15.12;6.60;;;;;;;9.21;92.09;102204.50;171996;28;974;-69
2022/06/14 00:12:24;;;;;;;14.15;6.10;;;;;;;9.21;92.12;102212.31;171956;28;946;-69
2022/06/14 00:12:29;;;;;;;14.63;6.00;;;;;;;9.21;92.12;102214.09;171984;28;852;-70
2022/06/14 00:12:35;;;;;;;14.80;5.93;;;;;;;9.20;91.89;102213.22;172000;28;1038;-70
2022/06/14 00:12:40;;;;;;;14.23;6.00;;;;;;;9.19;91.81;102208.91;172016;28;907;-70
2022/06/14 00:12:45;;;;;;;14.03;6.00;;;;;;;9.18;92.04;102209.78;172041;28;903;-70
2022/06/14 00:12:52;;;;;;;14.48;6.18;;;;;;;9.18;92.25;102209.78;172013;28;1030;-70
2022/06/14 00:12:58;;;;;;;15.72;6.38;;;;;;;9.18;92.30;102209.78;172000;28;975;-70
2022/06/14 00:13:04;;;;;;;15.93;6.30;;;;;;;9.18;92.27;102201.97;172035;28;1034;-70
2022/06/14 00:13:11;;;;;;;16.53;6.20;;;;;;;9.18;92.21;102209.78;172021;28;1064;-69
2022/06/14 00:13:18;;;;;;;16.25;6.25;;;;;;;9.18;92.22;102204.59;172038;28;886;-69
2022/06/14 00:13:24;;;;;;;15.27;6.30;;;;;;;9.17;92.25;102210.66;172101;28;1129;-69
2022/06/14 00:13:30;;;;;;;14.70;6.13;;;;;;;9.17;92.08;102213.25;172036;28;1069;-69
2022/06/14 00:13:35;;;;;;;14.07;6.10;;;;;;;9.17;91.82;102210.66;172005;28;931;-69
2022/06/14 00:13:42;;;;;;;13.30;6.07;;;;;;;9.19;91.93;102214.13;172019;28;704;-69
2022/06/14 00:13:53;;;;;;;13.55;6.07;;;;;;;9.18;91.85;102212.41;172037;28;880;-69
2022/06/14 00:14:01;;;;;;;13.82;5.92;;;;;;;9.17;91.92;102208.06;171933;28;1249;-69
2022/06/14 00:14:10;;;;;;;14.15;6.00;;;;;;;9.17;91.83;102213.25;172010;28;969;-69
2022/06/14 00:14:15;;;;;;;15.24;5.96;;;;;;;9.16;91.95;102201.13;171976;28;2168;-70
2022/06/14 00:14:21;;;;;;;15.20;5.88;;;;;;;9.16;91.82;102202.91;172037;28;860;-70
2022/06/14 00:14:26;;;;;;;15.47;5.87;;;;;;;9.15;91.80;102204.63;172035;28;832;-70
2022/06/14 00:14:32;;;;;;;15.57;6.03;;;;;;;9.14;92.06;102205.50;172006;28;951;-70
2022/06/14 00:14:37;;;;;;;15.80;5.93;;;;;;;9.15;91.79;102207.22;172001;28;1034;-70
2022/06/14 00:14:42;;;;;;;15.77;5.80;;;;;;;9.15;92.14;102209.84;172015;28;927;-70
2022/06/14 00:14:48;;;;;;;15.20;5.73;;;;;;;9.16;91.83;102206.34;172017;28;903;-70
2022/06/14 00:14:53;;;;;;;15.03;5.73;;;;;;;9.15;92.12;102209.84;172010;28;1113;-69
2022/06/14 00:14:58;;;;;;;14.48;5.65;;;;;;;9.16;91.98;102205.50;171995;28;1038;-69
2022/06/14 00:15:05;;;;;;;14.13;5.57;;;;;;;9.16;92.19;102210.72;171996;28;836;-69
2022/06/14 00:15:11;;;;;;;13.63;5.70;;;;;;;9.15;91.99;102199.41;172039;28;864;-70
2022/06/14 00:15:16;;;;;;;13.27;5.70;;;;;;;9.15;92.03;102204.63;171862;28;1015;-69
2022/06/14 00:15:22;;;;;;;13.32;5.90;;;;;;;9.15;91.75;102209.84;172006;28;868;-70
2022/06/14 00:15:27;;;;;;;13.67;5.80;;;;;;;9.16;91.78;102214.16;171991;28;982;-70
2022/06/14 00:15:33;;;;;;;13.43;5.90;;;;;;;9.14;91.90;102214.16;171986;28;923;-69
2022/06/14 00:15:39;;;;;;;13.30;5.82;;;;;;;9.16;91.68;102210.72;171993;28;907;-69
2022/06/14 00:15:45;;;;;;;14.18;5.93;;;;;;;9.15;91.75;102204.63;171989;28;824;-69
2022/06/14 00:15:51;;;;;;;14.60;5.90;;;;;;;9.14;91.69;102208.13;172014;28;777;-70
2022/06/14 00:15:56;;;;;;;14.70;5.90;;;;;;;9.13;91.65;102204.66;171963;28;978;-70
2022/06/14 00:16:02;;;;;;;15.23;6.10;;;;;;;9.14;91.49;102208.13;171989;28;887;-69
2022/06/14 00:16:09;;;;;;;15.73;6.25;;;;;;;9.12;91.83;102207.25;171905;28;1069;-69
2022/06/14 00:16:16;;;;;;;15.22;6.22;;;;;;;9.13;92.32;102206.38;171964;28;978;-70
2022/06/14 00:16:24;;;;;;;14.23;5.93;;;;;;;9.12;91.91;102205.53;172020;28;1066;-69
2022/06/14 00:16:32;;;;;;;14.30;5.90;;;;;;;9.13;91.72;102201.16;171951;28;989;-69
2022/06/14 00:16:38;;;;;;;13.85;5.63;;;;;;;9.13;92.10;102211.59;171957;28;1049;-70
2022/06/14 00:16:44;;;;;;;13.73;5.60;;;;;;;9.12;92.09;102208.13;171980;28;962;-69
2022/06/14 00:16:49;;;;;;;13.23;5.60;;;;;;;9.13;91.97;102211.59;171959;28;1038;-69
2022/06/14 00:16:54;;;;;;;13.18;5.72;;;;;;;9.12;92.10;102204.66;171970;28;1038;-70
2022/06/14 00:17:00;;;;;;;13.47;5.73;;;;;;;9.11;91.94;102209.00;171959;28;1026;-69
2022/06/14 00:17:05;;;;;;;13.97;5.80;;;;;;;9.12;91.80;102207.25;171942;28;816;-69
2022/06/14 00:17:10;;;;;;;13.48;5.78;;;;;;;9.13;92.11;102211.59;171916;28;920;-69
2022/06/14 00:17:16;;;;;;;14.30;6.00;;;;;;;9.13;92.21;102201.16;171994;28;904;-69
2022/06/14 00:17:21;;;;;;;16.05;6.15;;;;;;;9.13;92.15;102201.16;172051;28;1038;-69
2022/06/14 00:17:26;;;;;;;16.03;6.07;;;;;;;9.13;91.96;102204.66;172004;28;1018;-70
2022/06/14 00:17:32;;;;;;;16.70;6.33;;;;;;;9.13;92.20;102203.78;171875;28;872;-70
2022/06/14 00:17:37;;;;;;;16.70;6.50;;;;;;;9.12;92.07;102196.84;171992;28;831;-70
2022/06/14 00:17:43;;;;;;;17.73;6.57;;;;;;;9.13;91.93;102206.38;171949;28;773;-70
2022/06/14 00:17:49;;;;;;;18.02;6.50;;;;;;;9.12;92.01;102202.94;171832;28;1488;-70
2022/06/14 00:17:54;;;;;;;17.67;6.50;;;;;;;9.12;92.36;102199.44;171979;28;950;-69
2022/06/14 00:18:00;;;;;;;17.10;6.43;;;;;;;9.13;92.02;102212.47;171883;28;892;-69
2022/06/14 00:18:06;;;;;;;16.75;6.38;;;;;;;9.13;92.13;102203.78;171932;28;1097;-70
2022/06/14 00:18:14;;;;;;;15.50;6.30;;;;;;;9.13;92.43;102211.59;171881;28;978;-69
2022/06/14 00:18:19;;;;;;;16.20;6.35;;;;;;;9.13;92.15;102206.38;171945;28;974;-69
2022/06/14 00:18:25;;;;;;;16.03;6.30;;;;;;;9.14;91.91;102205.50;171943;28;867;-70
2022/06/14 00:18:30;;;;;;;16.40;6.30;;;;;;;9.13;92.03;102207.25;171936;28;1092;-69
2022/06/14 00:18:36;;;;;;;16.97;6.30;;;;;;;9.14;91.98;102202.91;171952;28;852;-69
2022/06/14 00:18:41;;;;;;;19.33;6.43;;;;;;;9.13;92.14;102204.66;171977;28;863;-70
2022/06/14 00:18:47;;;;;;;18.47;6.30;;;;;;;9.14;92.16;102208.13;171970;28;871;-70
2022/06/14 00:18:53;;;;;;;20.55;6.50;;;;;;;9.13;91.87;102199.44;172005;28;923;-69
2022/06/14 00:19:01;;;;;;;20.30;6.53;;;;;;;9.14;91.99;102208.13;171965;28;856;-69
2022/06/14 00:19:06;;;;;;;19.67;6.38;;;;;;;9.13;92.18;102206.38;171946;28;986;-69
2022/06/14 00:19:12;;;;;;;18.10;6.30;;;;;;;9.12;91.97;102200.31;171949;28;911;-69
2022/06/14 00:19:17;;;;;;;17.35;6.30;;;;;;;9.13;92.21;102206.38;171964;28;971;-69
2022/06/14 00:19:22;;;;;;;15.63;6.13;;;;;;;9.13;92.11;102201.16;171983;28;1026;-69
2022/06/14 00:19:28;;;;;;;15.32;6.10;;;;;;;9.13;91.97;102206.38;171975;28;1034;-69
2022/06/14 00:19:33;;;;;;;15.17;6.00;;;;;;;9.13;92.05;102211.59;171974;28;1030;-70
2022/06/14 00:19:38;;;;;;;14.53;6.00;;;;;;;9.13;92.51;102202.03;172019;28;801;-70
2022/06/14 00:19:44;;;;;;;14.50;6.03;;;;;;;9.13;91.98;102203.78;171945;28;1001;-69
2022/06/14 00:19:49;;;;;;;14.97;5.93;;;;;;;9.13;92.09;102203.78;171958;28;951;-69
2022/06/14 00:19:55;;;;;;;15.33;5.93;;;;;;;9.13;92.22;102201.16;171955;28;1112;-69
2022/06/14 00:20:00;;;;;;;15.75;5.93;;;;;;;9.13;91.95;102208.97;171990;28;1086;-70
2022/06/14 00:20:06;;;;;;;15.47;6.10;;;;;;;9.13;91.96;102203.78;172052;28;883;-70
2022/06/14 00:20:12;;;;;;;16.28;6.02;;;;;;;9.13;92.14;102204.66;172000;28;979;-70
2022/06/14 00:20:18;;;;;;;15.10;6.10;;;;;;;9.13;92.14;102201.16;171934;28;1030;-69
2022/06/14 00:20:24;;;;;;;13.90;6.10;;;;;;;9.13;92.22;102203.78;172050;28;971;-70
2022/06/14 00:20:29;;;;;;;13.77;6.10;;;;;;;9.13;91.97;102203.78;171975;28;757;-70
2022/06/14 00:20:35;;;;;;;14.27;6.00;;;;;;;9.13;91.75;102202.03;171892;28;773;-70
2022/06/14 00:20:42;;;;;;;14.30;6.10;;;;;;;9.14;92.43;102202.91;171952;28;852;-70
2022/06/14 00:20:49;;;;;;;14.10;6.03;;;;;;;9.14;92.30;102197.69;171982;28;891;-69
2022/06/14 00:20:55;;;;;;;14.10;6.03;;;;;;;9.14;92.10;102202.91;172022;28;880;-69
2022/06/14 00:21:02;;;;;;;13.42;6.00;;;;;;;9.14;92.13;102202.91;171945;28;1026;-70
2022/06/14 00:21:08;;;;;;;13.50;6.20;;;;;;;9.14;92.22;102200.31;171979;28;891;-70
2022/06/14 00:21:15;;;;;;;14.02;5.95;;;;;;;9.14;92.11;102202.91;171942;28;1137;-70
2022/06/14 00:21:21;;;;;;;15.60;6.23;;;;;;;9.12;91.88;102202.06;171994;28;1066;-70
2022/06/14 00:21:28;;;;;;;17.48;6.32;;;;;;;9.11;92.26;102205.56;171943;28;1129;-70
2022/06/14 00:21:36;;;;;;;16.73;6.20;;;;;;;9.10;92.24;102206.44;171939;28;1579;-69
2022/06/14 00:21:41;;;;;;;16.73;6.23;;;;;;;9.09;92.20;102209.91;171997;28;824;-69
2022/06/14 00:21:47;;;;;;;16.10;6.22;;;;;;;9.09;92.37;102199.50;171983;28;840;-69
2022/06/14 00:21:52;;;;;;;15.17;6.13;;;;;;;9.11;92.73;102208.16;172021;28;966;-69
2022/06/14 00:22:01;;;;;;;15.20;6.13;;;;;;;9.09;92.23;102202.09;171936;28;1034;-70
2022/06/14 00:22:08;;;;;;;16.40;6.29;;;;;;;9.11;92.44;102208.16;171931;28;1061;-69
2022/06/14 00:22:14;;;;;;;15.40;6.27;;;;;;;9.10;92.31;102201.25;171986;28;957;-69
2022/06/14 00:22:19;;;;;;;15.55;6.60;;;;;;;9.11;92.32;102208.16;171927;28;899;-70
2022/06/14 00:22:24;;;;;;;15.48;6.60;;;;;;;9.11;92.43;102203.78;172002;28;903;-69
2022/06/14 00:22:33;;;;;;;14.93;6.40;;;;;;;9.11;92.37;102197.75;171928;28;848;-69
2022/06/14 00:22:40;;;;;;;15.57;6.50;;;;;;;9.11;92.27;102205.56;172613;28;1065;-70
2022/06/14 00:22:45;;;;;;;17.17;6.53;;;;;;;9.11;92.22;102200.34;172672;28;880;-69
2022/06/14 00:22:51;;;;;;;17.13;6.30;;;;;;;9.11;92.61;102202.94;171890;28;1066;-70
2022/06/14 00:22:57;;;;;;;16.98;6.22;;;;;;;9.10;92.64;102202.06;171836;28;927;-69
2022/06/14 00:23:02;;;;;;;16.73;6.30;;;;;;;9.11;92.03;102205.56;171940;28;938;-69
2022/06/14 00:23:08;;;;;;;16.38;6.00;;;;;;;9.11;92.53;102202.94;171967;28;1002;-70
2022/06/14 00:23:16;;;;;;;15.82;6.07;;;;;;;9.11;92.29;102203.78;171943;28;1081;-69
2022/06/14 00:23:22;;;;;;;18.73;6.13;;;;;;;9.11;92.29;102206.41;172019;28;955;-69
2022/06/14 00:23:28;;;;;;;18.64;6.18;;;;;;;9.11;92.47;102198.56;171973;28;887;-70
2022/06/14 00:23:34;;;;;;;17.87;6.13;;;;;;;9.11;92.48;102203.78;171935;28;871;-69
2022/06/14 00:23:40;;;;;;;17.48;6.10;;;;;;;9.11;92.27;102205.56;171962;28;1097;-69
2022/06/14 00:23:46;;;;;;;17.67;5.90;;;;;;;9.10;92.42;102198.63;171987;28;852;-69
2022/06/14 00:23:51;;;;;;;15.40;5.90;;;;;;;9.09;92.29;102204.69;172009;28;950;-69
2022/06/14 00:23:57;;;;;;;15.03;5.93;;;;;;;9.09;92.19;102199.50;171865;28;995;-69
2022/06/14 00:24:05;;;;;;;14.80;5.87;;;;;;;9.08;92.37;102197.78;171949;28;840;-70
2022/06/14 00:24:10;;;;;;;14.60;5.90;;;;;;;9.08;92.55;102209.06;171988;28;954;-69
2022/06/14 00:24:15;;;;;;;14.68;5.80;;;;;;;9.08;92.59;102202.97;171941;28;1038;-69
2022/06/14 00:24:21;;;;;;;14.20;5.70;;;;;;;9.07;92.21;102207.31;172012;28;907;-70
2022/06/14 00:24:26;;;;;;;14.13;5.70;;;;;;;9.06;92.54;102205.59;171920;28;844;-70
2022/06/14 00:24:31;;;;;;;14.45;5.72;;;;;;;9.06;92.58;102204.78;171850;28;923;-69
2022/06/14 00:24:37;;;;;;;15.13;5.90;;;;;;;9.06;92.48;102204.78;171953;28;900;-70
2022/06/14 00:24:42;;;;;;;15.33;5.97;;;;;;;9.05;92.53;102200.41;171971;28;923;-69
2022/06/14 00:24:47;;;;;;;15.68;6.15;;;;;;;9.04;92.40;102202.19;171965;28;1113;-69
2022/06/14 00:24:56;;;;;;;16.03;6.20;;;;;;;9.05;92.49;102203.03;171960;28;1011;-69
2022/06/14 00:25:02;;;;;;;15.73;6.17;;;;;;;9.05;92.85;102197.81;172661;28;1054;-69
2022/06/14 00:25:22;;;;;;;14.77;6.03;;;;;;;9.05;92.75;102201.28;172661;28;911;-69
2022/06/14 00:25:39;;;;;;;14.01;6.05;;;;;;;9.07;92.58;102201.28;172529;28;1232;-69
2022/06/14 00:25:51;;;;;;;14.59;5.93;;;;;;;9.08;92.49;102208.19;172605;28;1251;-69
2022/06/14 00:25:59;;;;;;;14.51;5.81;;;;;;;9.09;92.85;102202.09;172621;28;1256;-70
2022/06/14 00:26:05;;;;;;;13.23;5.80;;;;;;;9.08;92.69;102206.47;172634;28;1069;-70
2022/06/14 00:26:12;;;;;;;12.97;6.00;;;;;;;9.08;92.31;102203.84;172647;28;962;-69
2022/06/14 00:26:17;;;;;;;13.32;5.97;;;;;;;9.09;92.46;102205.56;172641;28;982;-69
2022/06/14 00:26:22;;;;;;;13.40;5.97;;;;;;;9.09;92.59;102205.56;172656;28;1093;-69
2022/06/14 00:26:28;;;;;;;12.30;5.90;;;;;;;9.09;92.34;102207.31;171869;28;994;-70
2022/06/14 00:26:33;;;;;;;13.27;5.90;;;;;;;9.09;92.42;102199.50;171843;28;903;-69
2022/06/14 00:26:39;;;;;;;13.70;5.87;;;;;;;9.08;92.48;102203.84;171942;28;1030;-70
2022/06/14 00:26:44;;;;;;;12.95;5.70;;;;;;;9.08;92.47;102197.78;171995;28;887;-70
2022/06/14 00:26:50;;;;;;;13.00;5.80;;;;;;;9.07;92.21;102204.72;171984;28;912;-70
2022/06/14 00:26:55;;;;;;;13.55;5.70;;;;;;;9.06;92.47;102204.78;172024;28;922;-69
2022/06/14 00:27:00;;;;;;;14.83;5.70;;;;;;;9.05;92.34;102203.91;171886;28;840;-69
2022/06/14 00:27:06;;;;;;;14.63;5.70;;;;;;;9.05;92.68;102203.03;171974;28;891;-70
2022/06/14 00:27:11;;;;;;;15.90;5.90;;;;;;;9.06;92.56;102204.78;171928;28;911;-70
2022/06/14 00:27:17;;;;;;;16.23;5.90;;;;;;;9.05;93.01;102203.91;171961;28;1069;-69
2022/06/14 00:27:22;;;;;;;16.55;5.85;;;;;;;9.04;92.63;102196.97;172012;28;923;-70
2022/06/14 00:27:28;;;;;;;15.47;5.87;;;;;;;9.04;92.41;102201.31;171934;28;943;-69
2022/06/14 00:27:33;;;;;;;14.93;5.78;;;;;;;9.04;92.93;102198.69;171968;28;848;-69
2022/06/14 00:27:38;;;;;;;13.80;5.70;;;;;;;9.05;92.61;102203.03;171995;28;907;-69
2022/06/14 00:27:44;;;;;;;12.95;5.65;;;;;;;9.05;92.90;102203.03;171941;28;974;-69
2022/06/14 00:27:51;;;;;;;12.93;5.50;;;;;;;9.04;92.68;102204.78;171945;28;927;-69
2022/06/14 00:27:57;;;;;;;12.96;5.56;;;;;;;9.05;92.99;102208.22;171965;28;1157;-70
2022/06/14 00:28:04;;;;;;;13.07;5.63;;;;;;;9.06;92.72;102199.56;171966;28;1002;-69
2022/06/14 00:28:14;;;;;;;13.12;5.56;;;;;;;9.05;92.96;102203.03;171959;28;883;-69
2022/06/14 00:28:23;;;;;;;14.16;5.60;;;;;;;9.06;92.76;102204.78;171962;28;1206;-70
2022/06/14 00:28:32;;;;;;;14.21;5.76;;;;;;;9.06;92.76;102199.56;172546;28;1053;-69
2022/06/14 00:28:40;;;;;;;14.67;5.73;;;;;;;9.06;92.99;102209.97;171816;28;1307;-69
2022/06/14 00:28:45;;;;;;;13.83;5.80;;;;;;;9.05;92.53;102208.22;171962;28;1030;-69
2022/06/14 00:28:51;;;;;;;14.68;5.90;;;;;;;9.05;93.01;102208.22;171955;28;828;-69
2022/06/14 00:28:56;;;;;;;15.20;6.00;;;;;;;9.04;93.14;102207.38;171978;28;1089;-69
2022/06/14 00:29:02;;;;;;;15.50;6.00;;;;;;;9.05;92.95;102203.03;171981;28;848;-71
2022/06/14 00:29:07;;;;;;;16.48;5.97;;;;;;;9.04;92.88;102206.53;171982;28;915;-70
2022/06/14 00:29:12;;;;;;;17.53;6.03;;;;;;;9.04;92.93;102210.00;171977;28;932;-69
2022/06/14 00:29:18;;;;;;;17.27;5.90;;;;;;;9.04;93.14;102207.38;171951;28;844;-69
2022/06/14 00:29:23;;;;;;;15.83;5.73;;;;;;;9.04;92.89;102209.13;171966;28;908;-70
2022/06/14 00:29:29;;;;;;;15.73;5.63;;;;;;;9.02;92.97;102204.81;171944;28;832;-69
2022/06/14 00:29:34;;;;;;;16.15;5.72;;;;;;;9.04;92.80;102203.91;171191;28;864;-70
2022/06/14 00:29:39;;;;;;;13.97;5.70;;;;;;;9.04;92.90;102206.53;171304;28;848;-69
2022/06/14 00:29:45;;;;;;;12.95;5.65;;;;;;;9.05;93.01;102208.22;171286;28;994;-69
2022/06/14 00:29:51;;;;;;;13.03;5.83;;;;;;;9.04;92.83;102201.31;171310;28;808;-69
2022/06/14 00:29:56;;;;;;;13.20;5.88;;;;;;;9.05;93.05;102205.63;171329;28;988;-69
2022/06/14 00:30:03;;;;;;;12.63;5.85;;;;;;;9.04;92.97;102204.78;171295;28;896;-69
2022/06/14 00:30:08;;;;;;;12.48;5.60;;;;;;;9.04;92.76;102209.13;171288;28;1078;-70
2022/06/14 00:30:15;;;;;;;14.45;5.70;;;;;;;9.05;92.81;102209.09;171305;28;943;-70
2022/06/14 00:30:22;;;;;;;14.83;5.60;;;;;;;9.04;92.66;102204.78;170556;28;963;-69
2022/06/14 00:30:29;;;;;;;14.50;5.58;;;;;;;9.05;93.00;102208.22;170272;28;944;-69
2022/06/14 00:30:37;;;;;;;14.53;5.63;;;;;;;9.04;92.87;102202.19;171450;28;876;-69